Date,TemperatureHighF,TemperatureAvgF,TemperatureLowF,DewpointHighF,DewpointAvgF,DewpointLowF,HumidityHigh,HumidityAvg,HumidityLow,PressureMaxIn,PressureMinIn,WindSpeedMaxMPH,WindSpeedAvgMPH,GustSpeedMaxMPH,PrecipitationSumIn
2013-1-1,37.5,32.0,20.3,25.0,16.9,6.0,67,54,42,29.97,29.76,13,5,24,0.01
2013-1-2,29.1,21.5,13.0,16.0,7.4,1.0,65,55,48,30.14,29.94,20,5,22,0.00
2013-1-3,25.1,15.9,6.5,10.0,-1.2,-6.0,61,48,28,30.18,30.04,11,4,22,0.00
2013-1-4,38.1,30.7,20.2,23.0,18.6,10.0,72,61,49,30.03,29.85,16,3,28,0.00
2013-1-5,41.2,35.2,31.2,23.0,19.2,15.0,67,54,35,30.30,29.89,13,3,20,0.00
2013-1-6,43.1,35.6,29.0,28.0,24.7,18.0,86,65,52,30.27,29.98,13,3,17,0.00
2013-1-7,38.5,34.7,29.0,29.0,25.3,18.0,85,69,45,30.45,30.00,12,2,18,0.00
2013-1-8,46.8,38.5,28.8,29.0,27.0,25.0,89,65,46,30.41,30.30,12,3,21,0.00
2013-1-9,45.3,39.7,31.9,35.0,29.1,26.0,80,67,53,30.44,30.03,11,3,20,0.00
2013-1-10,47.2,42.4,36.2,27.0,22.9,21.0,59,47,37,30.57,30.07,19,6,33,0.00
2013-1-11,40.0,37.1,32.3,36.0,28.2,23.0,91,71,60,30.56,30.27,7,2,8,0.13
2013-1-12,44.6,41.7,37.7,42.0,39.8,36.0,96,92,88,30.28,30.17,3,1,7,0.01
2013-1-13,52.6,47.1,42.6,50.0,45.3,41.0,96,93,89,30.19,30.03,9,3,11,0.00
2013-1-14,61.2,52.9,42.8,52.0,42.4,26.0,94,70,37,30.29,29.89,13,5,20,0.00
2013-1-15,42.5,39.1,36.3,26.0,23.9,21.0,61,55,51,30.35,30.26,6,2,10,0.00
2013-1-16,36.5,33.4,30.5,32.0,29.1,21.0,94,85,55,30.29,29.86,7,2,9,0.32
2013-1-17,41.9,35.9,30.2,32.0,26.4,13.0,92,70,49,30.13,29.88,18,4,24,0.16
2013-1-18,29.9,23.0,18.5,11.0,-1.2,-9.0,47,35,26,30.50,30.10,15,4,23,0.00
2013-1-19,49.1,37.8,22.3,32.0,21.4,4.0,71,53,36,30.43,29.94,17,4,28,0.00
2013-1-20,53.7,42.4,29.4,33.0,24.3,8.0,71,50,31,29.96,29.58,21,8,29,0.00
2013-1-21,29.2,25.1,22.6,20.0,8.9,3.0,86,53,37,30.14,29.84,14,4,23,0.00
2013-1-22,24.4,20.9,13.8,19.0,7.0,-4.0,87,58,33,30.12,29.80,15,6,21,0.00
2013-1-23,15.6,11.4,7.5,-1.0,-9.1,-13.0,58,40,28,30.18,30.11,15,6,24,0.00
2013-1-24,19.6,11.1,3.5,-8.0,-10.9,-13.0,51,37,23,30.26,30.09,19,7,29,0.00
2013-1-25,23.4,16.2,9.0,12.0,-7.5,-13.0,82,36,22,30.35,30.11,14,4,22,0.00
2013-1-26,24.4,17.7,13.1,12.0,1.8,-8.0,83,53,28,30.27,30.05,18,4,23,0.00
2013-1-27,30.1,21.4,13.4,2.0,-0.7,-6.0,59,40,24,30.50,30.27,13,6,21,0.00
2013-1-28,30.5,25.5,21.0,27.0,10.9,0.0,92,58,29,30.49,30.05,7,2,12,0.00
2013-1-29,35.2,31.1,26.5,32.0,27.8,23.0,93,88,81,30.24,30.05,6,2,8,0.14
2013-1-30,61.1,50.5,33.8,57.0,47.8,32.0,95,91,82,30.20,29.51,21,6,27,0.14
2013-1-31,61.2,49.0,32.0,58.0,36.5,13.0,90,65,34,29.63,29.02,32,10,39,0.50
2013-2-1,31.8,28.9,23.0,16.0,7.2,2.0,53,40,30,30.12,29.63,14,6,25,0.00
2013-2-2,29.3,24.6,18.8,11.0,5.2,1.0,51,44,36,30.30,30.09,11,4,18,0.00
2013-2-3,26.6,24.6,22.7,21.0,18.7,11.0,83,78,52,30.10,29.77,9,2,13,0.00
2013-2-4,28.7,25.1,22.0,21.0,10.3,4.0,84,55,35,29.98,29.76,20,6,28,0.00
2013-2-5,27.2,24.7,21.9,24.0,12.0,7.0,88,60,46,30.07,29.98,10,3,17,0.00
2013-2-6,37.5,30.9,26.3,25.0,18.6,4.0,90,64,36,30.33,29.96,15,4,23,0.03
2013-2-7,28.8,25.1,20.0,18.0,2.6,-2.0,68,39,29,30.57,30.34,9,3,15,0.00
2013-2-8,32.7,29.7,18.8,30.0,25.9,17.0,96,86,69,30.53,29.61,21,7,38,0.00
2013-2-9,20.2,17.7,14.1,19.0,15.2,8.0,93,90,78,30.22,29.58,14,5,28,0.00
2013-2-10,39.3,25.1,14.2,15.0,6.1,2.0,77,47,22,30.44,30.23,10,3,18,0.00
2013-2-11,45.5,35.9,25.3,44.0,29.8,9.0,95,79,50,30.39,29.64,8,2,11,0.28
2013-2-12,44.0,39.5,35.4,39.0,28.6,25.0,93,66,50,29.91,29.64,17,5,26,0.01
2013-2-13,41.9,36.5,31.6,29.0,24.3,22.0,76,62,48,29.91,29.73,8,3,14,0.00
2013-2-14,43.4,37.2,32.8,29.0,22.5,19.0,77,57,39,30.04,29.75,10,2,13,0.00
2013-2-15,50.6,39.9,30.9,35.0,31.2,23.0,92,72,52,30.05,29.95,12,4,16,0.00
2013-2-16,38.9,35.6,31.6,34.0,27.7,17.0,90,74,52,29.99,29.75,9,2,15,0.02
2013-2-17,30.9,21.9,17.1,19.0,10.1,0.0,88,63,40,29.73,29.41,25,8,38,0.00
2013-2-18,31.8,23.0,14.8,2.0,-0.3,-4.0,51,38,22,30.20,29.71,20,9,33,0.01
2013-2-19,47.4,37.7,25.0,43.0,23.7,2.0,94,59,36,30.21,29.62,9,3,17,0.47
2013-2-20,43.6,33.2,26.8,41.0,19.3,8.0,90,59,38,29.82,29.56,24,7,30,0.00
2013-2-21,32.5,27.9,25.0,15.0,11.9,9.0,63,52,41,30.20,29.81,19,6,24,0.00
2013-2-22,37.5,32.0,26.1,25.0,20.8,15.0,72,64,52,30.43,30.22,10,3,14,0.00
2013-2-23,38.4,35.3,32.4,34.0,28.6,24.0,93,77,68,30.38,29.96,8,3,11,0.28
2013-2-24,38.3,35.0,30.9,37.0,33.4,29.0,94,93,92,29.95,29.72,11,3,18,0.73
2013-2-25,41.2,35.1,30.4,32.0,29.2,27.0,94,80,63,30.29,29.93,7,1,10,0.17
2013-2-26,42.1,37.4,31.7,33.0,30.1,27.0,90,76,57,30.38,30.20,12,3,14,0.00
2013-2-27,41.2,40.0,38.8,40.0,38.1,33.0,96,93,78,30.20,29.59,19,8,33,1.66
2013-2-28,46.3,39.3,34.0,38.0,35.2,33.0,96,86,68,29.69,29.56,7,2,11,0.00
2013-3-1,40.9,38.6,36.5,35.0,30.0,27.0,87,72,60,29.72,29.57,13,2,15,0.00
2013-3-2,42.4,37.7,33.8,29.0,26.4,24.0,71,64,55,29.71,29.66,9,3,16,0.00
2013-3-3,40.9,35.9,32.7,32.0,27.9,24.0,88,73,65,29.68,29.60,10,4,14,0.00
2013-3-4,39.6,34.5,30.6,28.0,23.4,20.0,83,64,49,29.77,29.61,16,6,25,0.00
2013-3-5,43.0,39.5,32.5,34.0,29.6,22.0,79,68,55,30.11,29.78,10,3,18,0.00
2013-3-6,39.3,37.6,35.2,35.0,32.6,29.0,89,82,66,30.15,30.08,24,10,32,0.13
2013-3-7,36.7,32.4,30.6,31.0,29.7,28.0,94,89,73,30.10,30.02,20,4,26,0.18
2013-3-8,42.1,33.9,29.2,31.0,27.2,21.0,95,79,47,30.18,29.97,9,1,32,0.23
2013-3-9,41.3,36.7,33.3,31.0,26.3,21.0,83,67,51,30.39,30.18,13,3,18,0.11
2013-3-10,39.5,35.8,31.9,31.0,30.0,28.0,86,79,70,30.45,30.37,9,3,11,0.00
2013-3-11,52.6,41.8,35.5,40.0,35.5,32.0,90,79,60,30.38,30.20,10,4,14,0.00
2013-3-12,54.8,48.3,41.4,53.0,46.1,39.0,94,92,89,30.21,29.77,13,4,18,0.33
2013-3-13,52.2,45.7,39.6,51.0,30.3,19.0,94,58,30,29.82,29.73,14,5,21,0.00
2013-3-14,39.4,32.6,23.3,23.0,13.9,5.0,60,47,37,29.88,29.74,15,6,26,0.00
2013-3-15,40.6,30.2,20.4,26.0,10.7,2.0,67,46,24,29.91,29.67,14,5,24,0.00
2013-3-16,39.7,34.4,29.9,26.0,13.4,5.0,67,44,25,29.91,29.70,10,3,18,0.00
2013-3-17,36.6,32.2,27.3,20.0,8.4,3.0,56,38,24,30.36,29.92,13,4,23,0.00
2013-3-18,35.1,28.2,20.6,26.0,9.1,-2.0,90,46,28,30.51,30.29,9,3,13,0.00
2013-3-19,36.3,32.5,28.7,35.0,31.3,26.0,96,95,90,30.28,29.64,20,7,30,0.75
2013-3-20,38.5,32.4,26.1,26.0,20.0,16.0,89,62,42,29.86,29.74,16,5,27,0.02
2013-3-21,36.4,32.0,30.0,29.0,21.6,15.0,91,67,46,29.86,29.65,8,2,10,0.00
2013-3-22,38.9,34.1,29.0,28.0,19.1,14.0,86,56,36,29.78,29.64,15,4,18,0.00
2013-3-23,43.4,36.2,29.7,22.0,18.4,15.0,69,50,33,29.82,29.67,22,7,26,0.00
2013-3-24,47.4,39.3,32.5,30.0,22.7,19.0,72,53,37,29.85,29.77,11,3,21,0.00
2013-3-25,42.5,38.8,35.2,35.0,30.1,25.0,76,71,62,29.81,29.56,13,4,22,0.00
2013-3-26,50.7,41.6,33.7,32.0,23.7,18.0,89,53,27,29.82,29.57,8,3,17,0.04
2013-3-27,52.4,44.3,35.2,31.0,22.8,20.0,66,44,29,29.90,29.77,11,4,20,0.00
2013-3-28,46.0,42.4,38.1,34.0,32.1,28.0,85,68,50,30.05,29.90,11,2,14,0.00
2013-3-29,55.5,48.0,40.0,33.0,31.2,27.0,70,54,34,30.08,30.00,10,3,17,0.00
2013-3-30,56.2,48.3,40.1,32.0,24.3,12.0,68,43,18,30.14,30.04,7,3,14,0.00
2013-3-31,59.3,49.6,36.7,40.0,25.2,19.0,75,41,21,30.16,29.80,15,4,22,0.01
2013-4-1,60.3,46.5,36.3,47.0,35.7,10.0,94,69,32,29.83,29.54,20,6,28,0.21
2013-4-2,39.2,34.8,30.9,16.0,11.4,7.0,49,38,27,29.98,29.83,18,7,29,0.00
2013-4-3,45.0,37.0,30.8,18.0,11.4,6.0,57,36,21,30.19,29.97,21,7,28,0.00
2013-4-4,55.9,42.6,31.0,25.0,14.7,9.0,54,35,16,30.34,30.10,12,5,18,0.00
2013-4-5,59.7,46.2,38.4,29.0,25.8,20.0,68,48,23,30.10,29.66,11,4,22,0.00
2013-4-6,46.2,39.3,32.7,25.0,8.9,-2.0,53,31,15,30.38,29.92,12,4,27,0.00
2013-4-7,52.3,44.9,33.1,40.0,28.2,12.0,79,54,32,30.38,30.05,16,5,29,0.00
2013-4-8,63.9,52.5,45.9,43.0,39.4,35.0,87,64,34,30.14,29.99,12,3,14,0.00
2013-4-9,70.4,54.3,47.5,51.0,43.5,37.0,90,69,38,30.13,29.90,12,4,25,0.04
2013-4-10,57.6,50.0,45.8,47.0,43.4,41.0,88,78,62,30.05,29.91,10,2,12,0.16
2013-4-11,50.0,46.0,43.3,46.0,40.4,33.0,94,81,63,30.18,29.86,8,3,16,0.06
2013-4-12,43.2,39.4,37.4,38.0,35.1,29.0,93,84,65,30.21,29.82,23,6,27,0.50
2013-4-13,50.4,42.1,36.0,39.0,36.2,33.0,92,80,58,29.97,29.78,10,3,19,0.04
2013-4-14,51.2,47.4,43.3,40.0,31.4,25.0,76,56,36,30.25,29.95,13,4,20,0.00
2013-4-15,50.0,45.5,39.1,39.0,32.6,27.0,71,62,49,30.44,30.25,10,3,15,0.00
2013-4-16,62.2,52.4,40.7,50.0,40.8,34.0,87,67,45,30.45,30.11,16,5,26,0.00
2013-4-17,67.0,59.3,52.7,52.0,36.9,26.0,82,48,23,30.37,30.10,11,4,18,0.00
2013-4-18,63.6,53.6,47.5,43.0,34.1,26.0,71,49,31,30.47,30.19,15,5,19,0.00
2013-4-19,74.4,63.1,52.6,63.0,57.2,44.0,95,82,59,30.19,29.71,21,7,30,0.00
2013-4-20,65.6,54.8,45.9,62.0,40.1,23.0,92,62,33,30.25,29.65,15,6,23,0.55
2013-4-21,50.7,42.9,36.6,29.0,21.9,17.0,60,44,28,30.73,30.25,15,4,20,0.00
2013-4-22,47.4,43.1,39.3,35.0,30.1,25.0,70,61,42,30.81,30.64,17,6,21,0.00
2013-4-23,42.4,41.4,40.1,40.0,37.8,31.0,93,87,68,30.64,30.16,15,5,20,0.16
2013-4-24,72.4,53.9,42.2,51.0,44.7,40.0,94,74,38,30.15,29.84,14,4,18,0.01
2013-4-25,64.3,56.3,48.8,52.0,36.2,23.0,88,52,21,30.30,29.88,13,4,22,0.03
2013-4-26,52.9,49.1,45.7,42.0,35.5,27.0,85,61,41,30.47,30.30,15,5,17,0.00
2013-4-27,60.6,52.4,43.7,42.0,35.6,27.0,86,56,31,30.46,30.34,11,3,14,0.00
2013-4-28,66.5,54.9,43.9,41.0,34.9,27.0,76,49,29,30.39,30.26,12,4,17,0.00
2013-4-29,68.6,57.2,48.9,46.0,36.4,12.0,82,51,15,30.32,30.23,12,4,18,0.00
2013-4-30,63.5,55.5,48.2,39.0,29.1,11.0,62,40,13,30.41,30.30,19,3,19,0.00
2013-5-1,62.9,56.4,47.6,38.0,32.6,24.0,62,42,25,30.53,30.41,11,2,13,0.00
2013-5-2,72.4,56.3,48.7,46.0,41.1,35.0,80,60,27,30.53,30.41,19,4,25,0.00
2013-5-3,54.7,49.2,44.7,43.0,40.4,39.0,82,72,62,30.57,30.42,16,4,18,0.00
2013-5-4,51.6,48.9,45.1,43.0,39.5,37.0,79,70,62,30.41,30.36,13,4,18,0.00
2013-5-5,53.5,48.3,41.8,43.0,39.5,37.0,86,73,53,30.37,30.31,12,4,14,0.00
2013-5-6,57.5,49.6,41.2,50.0,44.7,39.0,95,84,64,30.34,30.20,9,2,14,0.00
2013-5-7,75.0,62.0,48.5,57.0,51.1,46.0,89,69,48,30.22,30.13,10,3,14,0.00
2013-5-8,66.8,60.6,56.7,61.0,56.7,54.0,93,87,77,30.25,30.10,11,3,18,0.35
2013-5-9,67.0,59.1,56.0,59.0,57.0,54.0,96,93,74,30.09,29.94,9,2,11,0.95
2013-5-16,81.2,74.0,68.7,38.0,30.0,-99.9,26,21,18,29.84,29.66,15,-27,30,0.00
2013-5-17,67.8,60.3,54.8,46.0,40.6,35.0,65,49,30,30.25,29.85,12,3,18,0.00
2013-5-18,69.7,61.0,51.0,47.0,43.6,39.0,78,55,33,30.35,30.26,11,3,13,0.00
2013-5-19,68.2,56.7,52.2,54.0,49.1,46.0,92,77,52,30.39,30.28,10,2,17,0.08
2013-5-20,81.2,71.5,64.0,63.0,58.3,-99.9,87,68,52,30.06,29.95,10,2,15,0.04
2013-5-21,70.6,60.0,51.7,61.0,56.1,49.0,94,87,71,30.05,29.92,14,3,17,0.01
2013-5-22,64.2,55.3,50.9,59.0,52.3,49.0,95,89,80,30.09,29.93,11,3,13,0.05
2013-5-23,76.4,65.1,53.7,68.0,61.1,52.0,97,87,70,29.97,29.86,13,3,23,0.06
2013-5-24,70.8,63.2,50.0,66.0,60.5,48.0,94,91,77,29.86,29.70,11,3,17,1.22
2013-5-25,51.8,48.3,42.5,50.0,46.1,38.0,96,91,84,29.85,29.73,16,4,24,0.44
2013-5-26,57.5,49.1,40.2,41.0,38.0,36.0,90,68,46,30.14,29.76,14,6,28,0.05
2013-5-27,72.0,59.9,45.5,41.0,36.6,30.0,79,47,22,30.21,30.11,13,4,20,0.00
2013-5-28,66.6,60.7,52.0,53.0,46.1,37.0,76,60,39,30.29,30.20,11,3,14,0.00
2013-5-29,71.2,62.9,58.6,63.0,59.0,53.0,94,87,75,30.24,30.04,7,2,10,0.95
2013-5-30,88.5,77.5,63.6,68.0,64.9,62.0,95,68,46,30.12,30.04,14,4,17,0.01
2013-5-31,94.7,83.7,71.4,67.0,64.5,61.0,78,55,33,30.12,29.97,10,3,17,0.00
2013-6-1,92.6,82.2,71.4,67.0,64.0,62.0,73,56,37,30.02,29.89,15,4,20,0.00
2013-6-2,88.8,78.1,68.6,68.0,65.4,63.0,85,66,43,29.92,29.77,15,5,28,0.00
2013-6-3,78.0,70.0,65.7,67.0,62.6,42.0,91,78,41,29.89,29.79,11,3,13,0.79
2013-6-4,72.1,63.9,54.8,45.0,42.1,39.0,57,46,36,30.12,29.86,13,4,20,0.00
2013-6-5,72.6,64.7,56.3,49.0,44.6,39.0,69,49,33,30.23,30.13,10,3,14,0.00
2013-6-6,72.9,65.1,56.8,55.0,48.9,39.0,74,57,32,30.23,30.14,9,3,16,0.00
2013-6-7,60.5,56.0,54.1,56.0,53.2,48.0,95,90,73,30.17,29.86,12,4,19,3.00
2013-6-8,78.9,64.0,54.0,63.0,57.1,53.0,96,80,57,30.04,29.64,15,4,18,0.69
2013-6-9,79.6,73.6,62.4,58.0,53.9,51.0,82,52,37,30.20,30.04,13,4,17,0.00
2013-6-10,69.3,63.2,57.5,58.0,55.9,54.0,95,78,61,30.25,30.07,10,4,12,0.71
2013-6-11,63.7,58.6,56.1,58.0,56.3,54.0,96,92,81,30.07,29.62,11,4,19,1.46
2013-6-12,70.5,63.0,56.5,58.0,54.5,52.0,95,75,54,29.85,29.60,20,4,25,0.04
2013-6-13,68.9,59.8,53.3,56.0,52.3,50.0,92,77,51,29.85,29.71,8,2,14,0.72
2013-6-14,75.1,61.5,52.0,56.0,52.1,48.0,94,74,44,29.79,29.68,13,3,18,1.25
2013-6-15,78.9,70.2,60.8,54.0,45.7,39.0,72,44,24,29.97,29.80,10,3,17,0.00
2013-6-16,76.3,69.7,60.7,62.0,51.9,44.0,78,54,37,29.98,29.75,10,3,19,0.00
2013-6-17,86.5,72.0,63.0,62.0,59.2,55.0,90,67,34,29.95,29.81,11,3,27,0.18
2013-6-18,72.3,64.0,58.5,61.0,58.4,56.0,92,83,61,29.99,29.92,10,3,15,0.71
2013-6-19,71.5,65.0,58.0,57.0,50.9,42.0,90,63,36,30.19,29.95,11,2,13,0.01
2013-6-20,78.9,68.2,57.2,56.0,51.3,47.0,81,57,33,30.30,30.18,10,3,14,0.00
2013-6-21,84.3,72.6,60.5,64.0,57.3,53.0,78,60,35,30.30,30.22,8,3,15,0.00
2013-6-22,84.9,74.0,65.3,61.0,57.7,55.0,69,58,39,30.26,30.16,12,3,19,0.00
2013-6-23,90.9,78.3,66.6,71.0,63.9,55.0,75,62,48,30.20,30.03,13,4,20,0.00
2013-6-24,93.8,82.1,71.7,71.0,69.1,67.0,88,67,43,30.06,29.90,9,4,18,0.32
2013-6-25,92.0,81.3,71.8,69.0,66.8,65.0,85,63,41,29.96,29.76,14,4,18,0.00
2013-6-26,84.1,75.8,67.6,70.0,67.4,65.0,93,76,58,29.89,29.75,6,3,12,0.03
2013-6-27,67.6,64.2,61.4,65.0,62.6,60.0,96,94,87,29.91,29.81,9,4,13,0.01
2013-6-28,82.2,71.1,61.9,72.0,67.3,61.0,97,88,68,29.81,29.53,17,5,26,0.51
2013-6-29,83.2,75.4,71.1,70.0,68.7,67.0,94,81,60,29.76,29.56,18,4,20,0.00
2013-6-30,84.1,76.4,70.7,72.0,69.6,67.0,91,80,64,29.98,29.77,11,4,16,0.00
2013-7-1,84.7,76.2,71.7,74.0,71.5,70.0,94,85,68,30.12,29.98,16,3,22,0.04
2013-7-2,82.9,73.6,61.8,73.0,68.6,59.0,92,84,70,30.25,30.11,10,3,13,0.00
2013-7-3,89.5,77.5,63.7,73.0,68.5,61.0,92,75,53,30.24,30.17,16,4,19,0.00
2013-7-4,93.0,83.8,74.6,75.0,72.5,71.0,90,71,51,30.24,30.13,9,3,16,0.00
2013-7-5,94.5,86.0,78.3,74.0,72.5,70.0,80,65,46,30.19,30.07,13,4,16,0.00
2013-7-6,91.5,84.0,78.2,73.0,70.9,63.0,81,66,46,30.11,30.00,11,4,17,0.00
2013-7-7,92.3,82.8,76.2,74.0,68.7,63.0,82,63,48,30.06,29.93,8,3,13,0.00
2013-7-8,83.3,76.4,67.6,74.0,70.3,64.0,89,81,71,30.10,29.95,10,3,13,0.00
2013-7-9,72.9,68.6,65.7,66.0,64.5,63.0,94,87,78,30.15,30.09,6,2,9,0.01
2013-7-10,86.6,74.6,66.4,74.0,69.8,64.0,96,85,64,30.12,29.84,14,3,21,0.02
2013-7-11,81.6,77.5,74.0,73.0,71.2,68.0,91,81,66,29.95,29.82,9,2,11,0.18
2013-7-12,75.4,70.8,66.3,70.0,60.9,55.0,87,71,56,30.24,29.96,15,5,19,0.00
2013-7-13,73.5,69.2,66.2,69.0,65.1,62.0,92,86,79,30.35,30.24,7,3,10,0.00
2013-7-14,91.6,80.0,70.5,75.0,70.6,65.0,95,75,43,30.34,30.24,9,2,12,0.00
2013-7-15,90.1,83.4,76.8,74.0,70.9,68.0,83,67,49,30.23,30.13,8,2,10,0.00
2013-7-16,92.5,82.9,76.3,73.0,67.5,65.0,75,61,43,30.20,30.14,9,2,13,0.00
2013-7-17,95.0,85.4,76.6,73.0,69.4,65.0,76,60,37,30.21,30.03,9,3,16,0.00
2013-7-18,91.3,82.5,78.7,74.0,71.0,67.0,78,69,49,30.05,29.98,16,4,16,0.00
2013-7-19,97.2,88.0,79.1,78.0,74.0,70.0,83,65,43,29.98,29.75,15,4,20,0.00
2013-7-20,93.7,86.2,80.1,76.0,73.0,63.0,83,66,45,29.83,29.68,9,3,21,0.00
2013-7-21,80.5,74.9,71.5,68.0,63.9,59.0,87,69,56,30.03,29.84,11,4,14,0.02
2013-7-22,76.5,72.4,69.9,69.0,67.4,65.0,90,84,72,30.06,29.93,14,3,15,0.00
2013-7-23,81.4,72.8,69.0,75.0,70.4,67.0,97,92,79,29.92,29.58,7,2,13,1.78
2013-7-24,85.9,78.3,69.7,72.0,66.8,56.0,95,70,50,29.98,29.62,11,3,16,0.00
2013-7-25,68.4,62.3,59.9,59.0,54.3,49.0,92,76,59,30.14,29.99,9,3,15,0.47
2013-7-26,70.7,65.5,61.0,67.0,62.3,59.0,94,89,80,30.10,29.96,10,2,14,1.01
2013-7-27,84.2,73.1,62.0,66.0,62.7,59.0,91,72,46,30.10,30.03,9,2,14,0.00
2013-7-28,76.7,70.9,67.1,69.0,66.8,65.0,93,87,76,30.06,30.01,7,2,11,0.00
2013-7-29,82.6,73.3,67.1,71.0,67.6,65.0,96,83,61,30.07,30.00,9,2,19,0.32
2013-7-30,82.1,74.1,65.6,67.0,58.4,52.0,94,61,36,30.13,30.07,12,3,14,0.00
2013-7-31,79.5,73.7,67.1,63.0,59.4,55.0,75,62,45,30.17,30.08,7,2,11,0.00
2013-8-1,82.0,72.2,65.7,65.0,61.7,59.0,87,71,49,30.09,29.93,9,2,17,0.00
2013-8-2,82.9,73.3,65.7,67.0,61.7,56.0,93,69,41,29.93,29.83,11,3,18,0.19
2013-8-3,79.5,73.0,67.3,64.0,61.7,59.0,84,69,51,29.91,29.82,9,3,16,0.00
2013-8-4,80.5,71.4,63.9,60.0,55.6,51.0,73,59,38,29.92,29.80,9,2,17,0.00
2013-8-5,75.8,67.6,59.9,53.0,46.9,40.0,73,50,29,30.09,29.92,11,4,19,0.00
2013-8-6,76.8,68.7,59.3,57.0,49.5,43.0,68,52,36,30.19,30.09,9,2,12,0.00
2013-8-7,80.7,70.5,61.0,60.0,54.3,46.0,87,59,33,30.23,30.16,14,3,15,0.00
2013-8-8,80.7,72.6,66.1,70.0,65.1,53.0,90,78,61,30.18,30.05,11,3,14,0.10
2013-8-9,76.1,73.5,72.2,74.0,71.0,69.0,95,91,88,30.07,29.79,9,3,18,1.64
2013-8-10,83.1,76.2,69.2,72.0,60.8,53.0,93,62,37,30.05,29.83,18,4,19,0.00
2013-8-11,79.1,71.3,62.1,59.0,53.0,46.0,73,54,39,30.12,30.04,9,2,13,0.00
2013-8-12,81.9,73.4,64.4,65.0,57.7,50.0,81,60,38,30.07,29.96,13,2,17,0.00
2013-8-13,76.0,71.0,67.9,66.0,63.3,60.0,83,77,62,29.96,29.73,7,1,12,0.00
2013-8-14,74.3,68.4,63.9,64.0,53.8,49.0,88,61,43,30.00,29.71,16,6,26,0.00
2013-8-15,76.7,67.5,58.8,53.0,50.4,46.0,76,56,36,30.15,30.00,11,3,18,0.00
2013-8-16,79.7,70.2,60.7,58.0,52.9,49.0,75,56,35,30.23,30.15,8,3,17,0.00
2013-8-17,75.2,69.6,62.6,60.0,56.1,52.0,77,63,46,30.32,30.23,8,3,12,0.00
2013-8-18,80.0,72.1,65.1,62.0,58.2,53.0,80,63,41,30.31,30.13,6,2,11,0.00
2013-8-19,81.9,73.1,63.3,61.0,58.6,55.0,83,62,41,30.13,29.99,9,3,13,0.00
2013-8-20,86.7,77.9,68.3,63.0,60.4,57.0,76,57,37,30.13,30.02,8,2,12,0.00
2013-8-21,88.8,79.0,68.8,65.0,62.3,60.0,74,58,40,30.18,30.06,10,2,12,0.00
2013-8-22,86.6,77.4,69.6,71.0,66.6,63.0,87,70,50,30.07,29.86,13,3,18,0.00
2013-8-23,77.2,73.0,68.3,69.0,59.2,50.0,88,63,47,30.16,29.86,10,3,17,0.00
2013-8-24,72.3,67.2,60.9,51.0,46.1,39.0,65,48,31,30.37,30.17,13,3,14,0.00
2013-8-25,83.0,71.3,60.3,56.0,51.5,45.0,74,52,31,30.40,30.23,7,3,14,0.00
2013-8-26,81.7,73.1,66.9,66.0,61.2,56.0,77,67,52,30.23,29.91,11,3,22,0.00
2013-8-27,76.9,72.2,69.3,69.0,66.6,64.0,93,83,68,29.94,29.87,7,2,11,0.05
2013-8-28,78.0,69.2,63.1,67.0,64.1,62.0,96,84,66,30.02,29.90,9,2,13,0.00
2013-8-29,67.2,64.3,62.0,64.0,61.1,57.0,95,89,83,30.12,30.00,15,3,15,0.00
2013-8-30,83.0,71.4,62.6,68.0,62.8,58.0,86,75,56,30.07,29.86,10,3,13,0.00
2013-8-31,82.7,75.1,69.4,73.0,70.2,67.0,92,85,71,29.88,29.83,10,3,13,0.00
2013-9-1,79.7,73.9,69.8,75.0,70.6,67.0,93,89,80,29.93,29.83,7,2,12,0.68
2013-9-2,82.2,75.0,70.8,74.0,71.2,68.0,95,88,73,29.91,29.76,13,2,20,0.08
2013-9-3,81.0,74.8,68.3,71.0,67.4,59.0,94,79,62,29.85,29.73,7,3,14,0.00
2013-9-4,80.3,71.4,62.2,59.0,56.0,53.0,83,60,40,29.96,29.84,12,4,16,0.00
2013-9-5,68.1,64.5,58.8,61.0,56.0,45.0,87,74,56,30.18,29.90,9,2,13,0.12
2013-9-6,69.3,60.2,51.9,45.0,41.3,36.0,70,52,32,30.29,30.13,7,2,13,0.00
2013-9-7,79.6,66.2,53.4,56.0,48.7,44.0,75,55,34,30.14,29.90,11,3,15,0.00
2013-9-8,74.7,66.7,57.6,60.0,50.9,40.0,79,59,35,30.14,29.79,13,3,21,0.00
2013-9-9,69.2,60.2,51.5,50.0,43.2,38.0,74,55,35,30.28,30.14,10,2,12,0.00
2013-9-10,76.2,67.8,58.0,69.0,61.4,50.0,89,80,72,30.20,30.07,10,3,17,0.05
2013-9-11,95.8,81.7,69.9,76.0,71.3,67.0,94,73,41,30.11,29.97,10,3,15,0.00
2013-9-12,87.2,77.8,68.3,73.0,70.0,66.0,93,78,59,30.01,29.72,15,5,20,0.61
2013-9-13,79.7,69.8,61.2,68.0,63.7,54.0,95,81,56,29.79,29.60,9,2,12,0.50
2013-9-14,66.5,61.9,57.6,54.0,52.1,50.0,79,71,60,30.10,29.80,9,3,14,0.00
2013-9-15,71.4,61.9,53.0,51.0,48.8,44.0,86,64,40,30.20,30.10,9,2,13,0.00
2013-9-16,67.7,60.1,51.1,53.0,48.9,38.0,80,67,54,30.29,30.06,8,2,15,0.01
2013-9-17,61.8,53.6,44.2,43.0,37.6,33.0,73,56,40,30.46,30.29,8,2,14,0.00
2013-9-18,74.0,61.6,49.7,49.0,43.3,39.0,77,54,29,30.37,30.19,8,2,12,0.00
2013-9-19,75.6,64.7,53.5,55.0,50.4,46.0,77,61,44,30.18,30.07,6,2,8,0.00
2013-9-20,74.0,65.0,55.2,58.0,54.7,51.0,86,70,51,30.13,30.05,11,2,11,0.00
2013-9-21,76.0,66.9,58.0,65.0,59.7,55.0,94,79,56,30.07,29.78,13,3,19,0.00
2013-9-22,71.4,65.8,55.4,67.0,56.3,46.0,91,73,45,29.87,29.66,16,4,20,0.38
2013-9-23,62.4,54.6,48.7,45.0,40.8,38.0,73,61,48,30.05,29.87,12,4,20,0.00
2013-9-24,67.4,55.0,45.3,45.0,41.1,39.0,78,61,39,30.04,29.86,8,2,17,0.00
2013-9-25,62.0,56.7,50.3,48.0,45.7,43.0,76,67,55,30.02,29.93,9,2,13,0.00
2013-9-26,62.4,58.7,55.3,50.0,47.6,45.0,74,67,58,30.17,30.02,10,2,13,0.00
2013-9-27,64.8,60.1,57.2,52.0,49.9,48.0,78,69,58,30.30,30.17,11,2,15,0.00
2013-9-28,69.1,60.3,54.5,56.0,52.9,50.0,90,77,58,30.37,30.29,8,2,11,0.00
2013-9-29,62.7,57.0,51.5,54.0,51.5,48.0,94,82,61,30.31,30.17,8,2,10,0.00
2013-9-30,63.8,57.3,51.1,54.0,50.4,48.0,95,79,60,30.17,30.01,11,2,12,0.00
2013-10-1,76.8,63.1,51.8,55.0,51.0,46.0,89,67,36,30.01,29.89,10,2,14,0.00
2013-10-2,80.2,69.7,59.8,60.0,57.0,54.0,80,65,49,29.99,29.86,15,4,20,0.00
2013-10-3,77.8,68.8,60.0,57.0,49.6,43.0,77,53,31,30.12,29.99,7,2,12,0.00
2013-10-4,65.8,62.6,60.0,57.0,52.1,48.0,84,69,58,30.12,30.08,5,1,8,0.10
2013-10-5,68.3,62.8,60.1,58.0,55.5,52.0,87,78,60,30.17,30.10,9,2,9,0.00
2013-10-6,61.6,57.8,55.4,57.0,55.0,53.0,95,90,79,30.27,30.16,8,3,15,0.39
2013-10-7,77.4,68.0,58.5,70.0,63.8,53.0,97,87,71,30.17,29.88,14,4,27,0.02
2013-10-8,66.4,60.0,54.7,54.0,42.9,36.0,73,55,35,30.41,29.95,13,3,17,0.00
2013-10-9,58.9,55.4,51.4,48.0,43.8,40.0,80,66,53,30.51,30.41,15,4,15,0.00
2013-10-10,59.9,54.9,48.8,53.0,49.6,45.0,88,82,71,30.41,30.22,13,2,13,0.00
2013-10-11,66.3,59.0,52.9,55.0,50.5,43.0,92,75,51,30.22,30.15,8,2,11,0.00
2013-10-12,59.5,57.2,55.1,56.0,52.2,48.0,92,83,73,30.44,30.19,17,5,19,0.00
2013-10-13,58.6,54.6,50.3,49.0,46.1,44.0,84,74,61,30.49,30.41,12,3,14,0.00
2013-10-14,63.9,53.2,43.2,51.0,44.3,33.0,90,74,33,30.45,30.30,6,1,8,0.00
2013-10-15,64.5,57.6,51.8,54.0,50.4,48.0,86,78,62,30.31,30.23,9,2,12,0.00
2013-10-16,61.3,57.4,53.5,56.0,53.3,51.0,91,86,78,30.23,29.96,7,2,8,0.00
2013-10-17,72.2,62.2,54.2,60.0,57.0,53.0,95,84,62,29.96,29.77,11,2,12,0.00
2013-10-18,67.2,62.4,54.9,61.0,50.3,41.0,94,67,43,29.95,29.66,15,4,25,0.03
2013-10-19,66.3,57.7,48.6,47.0,42.1,38.0,72,58,37,30.02,29.80,11,2,14,0.00
2013-10-20,61.7,55.9,50.8,51.0,39.5,31.0,87,57,33,30.06,29.73,17,4,23,0.00
2013-10-21,67.5,55.6,45.4,44.0,38.8,34.0,72,55,36,30.16,30.05,11,2,14,0.00
2013-10-22,68.0,57.1,48.9,52.0,45.8,37.0,89,68,48,30.05,29.74,11,2,15,0.00
2013-10-23,51.7,48.7,43.9,37.0,33.0,30.0,71,56,44,29.84,29.63,10,2,11,0.00
2013-10-24,52.8,47.2,41.4,34.0,28.6,22.0,69,51,32,29.93,29.68,13,4,23,0.00
2013-10-25,49.2,43.8,38.5,33.0,28.2,26.0,75,55,40,30.20,29.93,9,3,18,0.00
2013-10-26,55.7,45.9,35.3,36.0,29.8,24.0,79,56,30,30.20,29.93,16,3,21,0.00
2013-10-27,53.9,48.9,43.5,39.0,33.4,27.0,84,57,39,30.11,29.87,10,3,20,0.03
2013-10-28,58.0,47.4,38.4,34.0,30.5,24.0,74,54,38,30.39,30.11,13,3,26,0.00
2013-10-29,48.5,41.3,35.3,34.0,28.2,22.0,79,60,44,30.49,30.39,6,2,10,0.00
2013-10-30,52.9,44.2,37.8,42.0,36.8,32.0,85,76,60,30.41,30.24,6,1,8,0.05
2013-10-31,63.2,53.2,40.4,60.0,49.2,38.0,92,86,76,30.29,29.84,12,2,17,0.04
2013-11-1,71.6,65.3,60.8,63.0,58.0,54.0,92,77,63,29.83,29.50,28,6,41,0.06
2013-11-2,67.2,58.8,52.7,54.0,45.2,39.0,83,63,36,29.76,29.63,7,1,14,0.00
2013-11-3,53.2,42.7,34.0,47.0,31.0,16.0,90,66,37,30.46,29.76,13,2,14,0.07
2013-11-4,41.8,36.1,30.7,25.0,19.7,16.0,64,52,35,30.75,30.47,9,2,13,0.00
2013-11-5,49.3,40.5,31.7,36.0,28.0,22.0,72,62,43,30.77,30.57,6,2,8,0.00
2013-11-6,61.0,51.4,41.8,51.0,41.5,33.0,87,70,47,30.57,30.09,12,3,18,0.00
2013-11-7,67.0,55.3,43.4,58.0,49.8,31.0,91,82,61,30.09,29.72,12,4,22,0.30
2013-11-8,47.0,41.3,36.4,32.0,26.0,21.0,68,55,43,30.14,29.86,13,5,23,0.00
2013-11-9,44.9,39.9,33.5,28.0,22.9,20.0,67,52,37,30.25,30.09,13,4,21,0.00
2013-11-10,56.1,47.5,42.3,42.0,35.5,28.0,86,64,46,30.08,29.77,15,3,20,0.04
2013-11-11,52.0,45.9,40.4,33.0,27.3,23.0,62,49,32,30.14,29.89,14,5,27,0.00
2013-11-12,49.0,36.8,29.1,39.0,24.1,15.0,86,61,48,30.23,29.94,13,4,20,0.12
2013-11-13,36.2,30.3,25.2,16.0,13.4,10.0,67,51,36,30.33,30.22,13,5,19,0.00
2013-11-14,50.8,40.3,29.4,24.0,19.4,15.0,58,44,32,30.21,30.08,13,3,19,0.00
2013-11-15,61.3,48.6,38.4,34.0,22.0,15.0,63,37,19,30.24,30.15,9,2,13,0.00
2013-11-16,59.6,49.0,43.8,37.0,29.4,23.0,74,49,24,30.36,30.23,6,2,9,0.00
2013-11-17,57.0,49.9,41.9,56.0,44.9,36.0,96,83,70,30.36,29.90,4,1,9,0.06
2013-11-18,66.0,60.2,49.9,62.0,48.0,32.0,97,67,40,29.88,29.58,12,4,22,0.20
2013-11-19,49.5,40.6,32.3,31.0,21.1,16.0,55,46,37,30.32,29.70,23,6,28,0.00
2013-11-20,42.5,35.2,29.8,16.0,13.4,10.0,55,42,28,30.67,30.32,14,3,17,0.00
2013-11-21,47.3,38.6,28.5,31.0,19.6,14.0,65,47,32,30.69,30.43,8,2,13,0.00
2013-11-22,48.0,45.1,42.0,46.0,41.1,31.0,94,86,66,30.42,29.86,6,1,8,0.25
2013-11-23,49.3,41.5,30.8,46.0,25.3,14.0,90,55,32,29.94,29.82,18,6,27,0.00
2013-11-24,30.5,24.4,20.8,17.0,2.9,-6.0,67,41,25,30.23,29.83,30,10,41,0.00
2013-11-25,33.4,25.6,17.5,17.0,1.7,-8.0,55,37,19,30.41,30.24,15,5,19,0.00
2013-11-26,43.0,37.4,31.4,41.0,23.3,16.0,94,58,42,30.38,30.09,8,2,15,0.10
2013-11-27,62.6,52.2,38.1,61.0,50.0,32.0,97,92,80,30.07,29.25,21,5,30,1.98
2013-11-28,38.0,31.7,26.1,32.0,15.2,4.0,79,52,33,30.48,29.50,21,6,29,0.00
2013-11-29,33.0,27.8,23.0,15.0,10.0,4.0,61,48,33,30.80,30.48,10,3,15,0.00
2013-11-30,33.1,27.2,19.7,23.0,14.7,7.0,68,60,52,30.84,30.50,6,2,8,0.00
2013-12-1,44.6,38.7,33.1,40.0,34.5,24.0,95,85,69,30.49,30.05,6,2,11,0.25
2013-12-2,40.4,38.3,36.5,38.0,36.4,35.0,95,92,89,30.05,29.97,5,2,9,0.00
2013-12-3,48.9,40.0,35.5,36.0,33.7,31.0,95,80,54,29.99,29.89,7,3,12,0.00
2013-12-4,43.9,38.6,33.9,31.0,28.2,24.0,83,67,51,30.25,29.99,8,2,15,0.00
2013-12-5,56.3,46.6,37.5,54.0,41.5,29.0,95,83,67,30.25,29.96,6,1,9,0.00
2013-12-6,56.5,49.7,35.2,55.0,44.0,29.0,95,81,50,30.18,29.90,11,3,16,0.31
2013-12-7,39.6,35.1,31.0,32.0,25.6,18.0,92,70,51,30.50,30.11,13,4,19,0.13
2013-12-8,30.9,29.4,26.9,19.0,14.5,11.0,62,54,46,30.64,30.50,8,2,14,0.00
2013-12-9,42.4,35.1,27.0,41.0,32.4,14.0,95,90,53,30.55,29.92,11,3,16,0.50
2013-12-10,36.9,32.6,26.3,34.0,27.8,15.0,92,83,60,30.05,29.82,11,4,20,0.03
2013-12-11,30.3,26.5,23.2,19.0,17.7,16.0,76,69,61,30.26,30.05,14,4,20,0.00
2013-12-12,25.6,22.2,17.0,18.0,6.1,-1.0,74,52,34,30.32,30.12,12,4,19,0.00
2013-12-13,28.9,22.8,16.4,17.0,9.9,3.0,70,58,46,30.43,30.05,16,5,23,0.00
2013-12-14,30.1,17.5,10.5,29.0,7.2,-6.0,95,66,46,30.66,30.19,14,4,22,0.00
2013-12-15,36.6,29.0,21.5,36.0,26.5,20.0,97,90,74,30.18,29.45,22,7,30,0.75
2013-12-16,28.1,25.3,19.6,22.0,12.8,6.0,81,60,41,30.26,29.80,14,5,25,0.00
2013-12-17,22.7,16.9,9.7,21.0,10.0,-1.0,92,75,58,30.34,29.99,8,2,14,0.00
2013-12-18,34.0,26.3,17.3,21.0,18.8,14.0,90,74,53,30.13,29.91,10,4,19,0.00
2013-12-19,43.7,35.5,26.6,27.0,23.0,20.0,76,61,46,30.16,30.00,11,3,21,0.04
2013-12-20,53.7,44.0,36.7,37.0,32.0,26.0,71,63,51,30.17,29.95,8,2,14,0.00
2013-12-21,58.7,50.3,43.8,48.0,43.5,34.0,88,78,67,30.00,29.91,9,2,15,0.00
2013-12-22,55.0,43.7,35.5,53.0,41.7,34.0,96,92,84,30.08,29.84,10,2,13,0.00
2013-12-23,39.3,35.2,33.0,36.0,33.9,32.0,97,95,87,30.14,30.02,5,1,12,0.72
2013-12-24,39.3,33.3,27.5,36.0,20.8,13.0,87,61,46,30.24,30.09,14,3,18,0.00
2013-12-25,27.4,20.0,14.6,14.0,4.1,-1.0,61,51,41,30.60,30.24,15,3,21,0.00
2013-12-26,35.3,28.6,20.1,32.0,22.4,3.0,93,78,48,30.56,30.12,8,2,12,0.01
2013-12-27,33.8,30.2,26.4,23.0,19.7,18.0,81,66,53,30.32,30.24,10,4,17,0.00
2013-12-28,47.9,37.0,27.2,27.0,24.5,21.0,78,62,43,30.27,30.04,8,2,18,0.00
2013-12-29,43.6,39.5,36.1,41.0,32.7,26.0,95,77,63,30.08,29.43,10,2,19,1.36
2013-12-30,42.5,34.4,19.8,34.0,23.2,9.0,91,66,38,30.21,29.55,17,4,22,0.00
2013-12-31,25.6,19.7,14.3,14.0,4.1,-7.0,68,52,39,30.23,30.08,9,3,16,0.00
2014-1-1,27.4,23.2,18.8,9.0,6.6,4.0,58,49,41,30.44,30.24,14,3,18,0.00
2014-1-2,22.8,14.4,2.1,20.0,10.4,-2.0,89,84,54,30.41,29.89,9,3,18,0.00